sensor_id;sensor_type;location;lat;lon;timestamp;P1;durP1;ratioP1;P2;durP2;ratioP2
8435;SDS011;4255;48.730;9.156;2023-06-14T00:01:49;10.93;;;6.30;;
8435;SDS011;4255;48.730;9.156;2023-06-14T00:04:15;9.50;;;6.90;;
8435;SDS011;4255;48.730;9.156;2023-06-14T00:06:45;5.93;;;5.43;;
8435;SDS011;4255;48.730;9.156;2023-06-14T00:09:11;8.20;;;5.70;;
8435;SDS011;4255;48.730;9.156;2023-06-14T00:11:38;7.40;;;6.27;;
8435;SDS011;4255;48.730;9.156;2023-06-14T00:14:05;7.37;;;6.60;;
8435;SDS011;4255;48.730;9.156;2023-06-14T00:16:30;7.60;;;6.33;;
8435;SDS011;4255;48.730;9.156;2023-06-14T00:18:58;8.17;;;6.40;;
8435;SDS011;4255;48.730;9.156;2023-06-14T00:21:24;6.60;;;5.97;;
8435;SDS011;4255;48.730;9.156;2023-06-14T00:23:49;7.47;;;6.77;;
8435;SDS011;4255;48.730;9.156;2023-06-14T00:26:15;6.97;;;6.37;;
8435;SDS011;4255;48.730;9.156;2023-06-14T00:28:41;7.03;;;6.33;;
8435;SDS011;4255;48.730;9.156;2023-06-14T00:31:06;10.03;;;6.50;;
8435;SDS011;4255;48.730;9.156;2023-06-14T00:33:32;11.00;;;7.13;;
8435;SDS011;4255;48.730;9.156;2023-06-14T00:35:58;7.63;;;6.93;;
8435;SDS011;4255;48.730;9.156;2023-06-14T00:38:23;8.93;;;6.67;;
8435;SDS011;4255;48.730;9.156;2023-06-14T00:40:49;7.63;;;6.40;;
8435;SDS011;4255;48.730;9.156;2023-06-14T00:43:15;10.10;;;7.03;;
8435;SDS011;4255;48.730;9.156;2023-06-14T00:45:40;7.53;;;6.80;;
8435;SDS011;4255;48.730;9.156;2023-06-14T00:48:06;8.20;;;7.27;;
8435;SDS011;4255;48.730;9.156;2023-06-14T00:50:32;7.67;;;6.43;;
8435;SDS011;4255;48.730;9.156;2023-06-14T00:52:59;6.43;;;5.90;;
8435;SDS011;4255;48.730;9.156;2023-06-14T00:55:26;7.33;;;6.63;;
8435;SDS011;4255;48.730;9.156;2023-06-14T00:57:53;7.90;;;6.80;;
8435;SDS011;4255;48.730;9.156;2023-06-14T01:00:21;9.27;;;7.30;;
8435;SDS011;4255;48.730;9.156;2023-06-14T01:02:47;8.43;;;6.47;;
8435;SDS011;4255;48.730;9.156;2023-06-14T01:05:14;7.10;;;6.40;;
8435;SDS011;4255;48.730;9.156;2023-06-14T01:15:47;7.97;;;6.50;;
8435;SDS011;4255;48.730;9.156;2023-06-14T01:18:13;7.30;;;6.60;;
8435;SDS011;4255;48.730;9.156;2023-06-14T01:20:45;7.70;;;6.73;;
8435;SDS011;4255;48.730;9.156;2023-06-14T01:23:14;8.70;;;6.40;;
8435;SDS011;4255;48.730;9.156;2023-06-14T01:25:43;12.93;;;6.90;;
8435;SDS011;4255;48.730;9.156;2023-06-14T01:28:09;7.13;;;6.40;;
8435;SDS011;4255;48.730;9.156;2023-06-14T01:30:39;8.93;;;7.10;;
8435;SDS011;4255;48.730;9.156;2023-06-14T01:33:10;6.20;;;5.60;;
8435;SDS011;4255;48.730;9.156;2023-06-14T01:35:44;7.93;;;6.70;;
8435;SDS011;4255;48.730;9.156;2023-06-14T01:38:15;8.07;;;6.50;;
8435;SDS011;4255;48.730;9.156;2023-06-14T01:40:44;6.97;;;6.20;;
8435;SDS011;4255;48.730;9.156;2023-06-14T01:43:10;7.43;;;6.53;;
8435;SDS011;4255;48.730;9.156;2023-06-14T01:45:40;7.60;;;6.83;;
8435;SDS011;4255;48.730;9.156;2023-06-14T01:48:07;9.17;;;6.60;;
8435;SDS011;4255;48.730;9.156;2023-06-14T01:50:33;8.83;;;7.40;;
8435;SDS011;4255;48.730;9.156;2023-06-14T01:52:59;10.97;;;7.20;;
8435;SDS011;4255;48.730;9.156;2023-06-14T01:55:25;9.87;;;7.77;;
8435;SDS011;4255;48.730;9.156;2023-06-14T01:57:51;6.73;;;6.03;;
8435;SDS011;4255;48.730;9.156;2023-06-14T02:00:17;7.87;;;6.60;;
8435;SDS011;4255;48.730;9.156;2023-06-14T02:02:44;8.90;;;7.40;;
8435;SDS011;4255;48.730;9.156;2023-06-14T02:05:10;14.13;;;6.67;;
8435;SDS011;4255;48.730;9.156;2023-06-14T02:07:36;7.37;;;6.67;;
8435;SDS011;4255;48.730;9.156;2023-06-14T02:10:03;8.70;;;7.40;;
8435;SDS011;4255;48.730;9.156;2023-06-14T02:12:29;15.53;;;6.93;;
8435;SDS011;4255;48.730;9.156;2023-06-14T02:14:55;7.27;;;6.60;;
8435;SDS011;4255;48.730;9.156;2023-06-14T02:17:21;9.50;;;7.07;;
8435;SDS011;4255;48.730;9.156;2023-06-14T02:19:47;7.43;;;6.83;;
8435;SDS011;4255;48.730;9.156;2023-06-14T02:22:13;11.10;;;6.40;;
8435;SDS011;4255;48.730;9.156;2023-06-14T02:24:40;7.20;;;6.50;;
8435;SDS011;4255;48.730;9.156;2023-06-14T02:27:06;8.57;;;7.77;;
8435;SDS011;4255;48.730;9.156;2023-06-14T02:29:35;14.00;;;6.87;;
8435;SDS011;4255;48.730;9.156;2023-06-14T02:32:01;7.47;;;6.87;;
8435;SDS011;4255;48.730;9.156;2023-06-14T02:34:26;10.20;;;7.80;;
8435;SDS011;4255;48.730;9.156;2023-06-14T02:36:52;8.03;;;6.63;;
8435;SDS011;4255;48.730;9.156;2023-06-14T02:39:17;7.60;;;6.70;;
8435;SDS011;4255;48.730;9.156;2023-06-14T02:41:45;8.20;;;6.50;;
8435;SDS011;4255;48.730;9.156;2023-06-14T02:44:12;13.73;;;7.13;;
8435;SDS011;4255;48.730;9.156;2023-06-14T02:46:38;6.80;;;6.20;;
8435;SDS011;4255;48.730;9.156;2023-06-14T02:49:04;7.90;;;7.20;;
8435;SDS011;4255;48.730;9.156;2023-06-14T02:51:30;11.50;;;7.77;;
8435;SDS011;4255;48.730;9.156;2023-06-14T02:53:56;7.47;;;6.70;;
8435;SDS011;4255;48.730;9.156;2023-06-14T02:56:21;9.43;;;6.83;;
8435;SDS011;4255;48.730;9.156;2023-06-14T02:58:47;10.33;;;7.23;;
8435;SDS011;4255;48.730;9.156;2023-06-14T03:01:13;10.13;;;7.10;;
8435;SDS011;4255;48.730;9.156;2023-06-14T03:03:39;8.70;;;7.00;;
8435;SDS011;4255;48.730;9.156;2023-06-14T03:06:05;9.50;;;7.83;;
8435;SDS011;4255;48.730;9.156;2023-06-14T03:08:31;10.50;;;6.80;;
8435;SDS011;4255;48.730;9.156;2023-06-14T03:11:03;8.27;;;6.67;;
8435;SDS011;4255;48.730;9.156;2023-06-14T03:13:30;9.17;;;7.30;;
8435;SDS011;4255;48.730;9.156;2023-06-14T03:15:59;8.83;;;7.50;;
8435;SDS011;4255;48.730;9.156;2023-06-14T03:18:27;7.70;;;7.00;;
8435;SDS011;4255;48.730;9.156;2023-06-14T03:20:55;7.20;;;6.50;;
8435;SDS011;4255;48.730;9.156;2023-06-14T03:23:22;7.70;;;7.00;;
8435;SDS011;4255;48.730;9.156;2023-06-14T03:25:48;8.97;;;6.67;;
8435;SDS011;4255;48.730;9.156;2023-06-14T03:28:14;8.37;;;7.57;;
8435;SDS011;4255;48.730;9.156;2023-06-14T03:30:39;13.23;;;7.57;;
8435;SDS011;4255;48.730;9.156;2023-06-14T03:33:05;7.40;;;6.10;;
8435;SDS011;4255;48.730;9.156;2023-06-14T03:35:31;12.00;;;7.40;;
8435;SDS011;4255;48.730;9.156;2023-06-14T03:37:56;6.90;;;6.20;;
8435;SDS011;4255;48.730;9.156;2023-06-14T03:40:22;7.70;;;6.90;;
8435;SDS011;4255;48.730;9.156;2023-06-14T03:42:50;8.43;;;6.67;;
8435;SDS011;4255;48.730;9.156;2023-06-14T03:45:16;7.20;;;6.50;;
8435;SDS011;4255;48.730;9.156;2023-06-14T03:47:41;8.07;;;7.17;;
8435;SDS011;4255;48.730;9.156;2023-06-14T03:50:07;8.77;;;6.80;;
8435;SDS011;4255;48.730;9.156;2023-06-14T03:52:33;10.37;;;6.77;;
8435;SDS011;4255;48.730;9.156;2023-06-14T03:54:58;8.00;;;6.47;;
8435;SDS011;4255;48.730;9.156;2023-06-14T03:57:25;7.83;;;6.90;;
8435;SDS011;4255;48.730;9.156;2023-06-14T03:59:51;8.47;;;7.50;;
8435;SDS011;4255;48.730;9.156;2023-06-14T04:02:16;11.40;;;6.40;;
8435;SDS011;4255;48.730;9.156;2023-06-14T04:04:43;7.87;;;6.17;;
8435;SDS011;4255;48.730;9.156;2023-06-14T04:07:10;7.67;;;6.97;;
8435;SDS011;4255;48.730;9.156;2023-06-14T04:09:37;7.33;;;6.63;;
8435;SDS011;4255;48.730;9.156;2023-06-14T04:12:04;8.03;;;7.33;;
8435;SDS011;4255;48.730;9.156;2023-06-14T04:14:30;7.70;;;7.07;;
8435;SDS011;4255;48.730;9.156;2023-06-14T04:16:57;7.17;;;6.43;;
8435;SDS011;4255;48.730;9.156;2023-06-14T04:19:23;7.47;;;6.73;;
8435;SDS011;4255;48.730;9.156;2023-06-14T04:21:49;7.70;;;6.90;;
8435;SDS011;4255;48.730;9.156;2023-06-14T04:24:15;7.90;;;6.53;;
8435;SDS011;4255;48.730;9.156;2023-06-14T04:26:41;8.80;;;6.70;;
8435;SDS011;4255;48.730;9.156;2023-06-14T04:29:10;8.03;;;6.87;;
8435;SDS011;4255;48.730;9.156;2023-06-14T04:31:39;9.80;;;7.20;;
8435;SDS011;4255;48.730;9.156;2023-06-14T04:34:05;8.10;;;6.77;;
8435;SDS011;4255;48.730;9.156;2023-06-14T04:36:35;9.00;;;7.13;;
8435;SDS011;4255;48.730;9.156;2023-06-14T04:39:04;10.33;;;6.57;;
8435;SDS011;4255;48.730;9.156;2023-06-14T04:41:30;7.07;;;6.47;;
8435;SDS011;4255;48.730;9.156;2023-06-14T04:44:00;8.00;;;7.20;;
8435;SDS011;4255;48.730;9.156;2023-06-14T04:46:28;7.80;;;6.40;;
8435;SDS011;4255;48.730;9.156;2023-06-14T04:48:55;7.80;;;7.00;;
8435;SDS011;4255;48.730;9.156;2023-06-14T04:51:21;7.33;;;6.60;;
8435;SDS011;4255;48.730;9.156;2023-06-14T04:53:54;8.07;;;7.37;;
8435;SDS011;4255;48.730;9.156;2023-06-14T04:56:22;10.70;;;7.43;;
8435;SDS011;4255;48.730;9.156;2023-06-14T04:58:48;6.97;;;6.37;;
8435;SDS011;4255;48.730;9.156;2023-06-14T05:01:14;10.20;;;6.77;;
8435;SDS011;4255;48.730;9.156;2023-06-14T05:03:39;8.47;;;7.40;;
8435;SDS011;4255;48.730;9.156;2023-06-14T05:06:06;7.73;;;6.53;;
8435;SDS011;4255;48.730;9.156;2023-06-14T05:08:31;8.63;;;7.30;;
8435;SDS011;4255;48.730;9.156;2023-06-14T05:10:57;10.20;;;7.93;;
8435;SDS011;4255;48.730;9.156;2023-06-14T05:13:23;11.20;;;7.13;;
8435;SDS011;4255;48.730;9.156;2023-06-14T05:15:49;6.90;;;6.20;;
8435;SDS011;4255;48.730;9.156;2023-06-14T05:18:14;7.10;;;6.50;;
8435;SDS011;4255;48.730;9.156;2023-06-14T05:20:41;8.23;;;7.20;;
8435;SDS011;4255;48.730;9.156;2023-06-14T05:23:07;9.70;;;7.97;;
8435;SDS011;4255;48.730;9.156;2023-06-14T05:25:33;11.30;;;7.50;;
8435;SDS011;4255;48.730;9.156;2023-06-14T05:27:59;11.30;;;8.00;;
8435;SDS011;4255;48.730;9.156;2023-06-14T05:30:25;10.80;;;6.60;;
8435;SDS011;4255;48.730;9.156;2023-06-14T05:32:51;7.30;;;6.70;;
8435;SDS011;4255;48.730;9.156;2023-06-14T05:35:17;8.23;;;7.43;;
8435;SDS011;4255;48.730;9.156;2023-06-14T05:37:43;12.23;;;7.43;;
8435;SDS011;4255;48.730;9.156;2023-06-14T05:40:09;12.50;;;7.30;;
8435;SDS011;4255;48.730;9.156;2023-06-14T05:42:35;9.03;;;8.00;;
8435;SDS011;4255;48.730;9.156;2023-06-14T05:45:00;18.23;;;7.80;;
8435;SDS011;4255;48.730;9.156;2023-06-14T05:47:26;7.53;;;6.93;;
8435;SDS011;4255;48.730;9.156;2023-06-14T05:49:53;13.00;;;7.30;;
8435;SDS011;4255;48.730;9.156;2023-06-14T05:52:19;11.60;;;7.30;;
8435;SDS011;4255;48.730;9.156;2023-06-14T05:54:45;10.00;;;7.00;;
8435;SDS011;4255;48.730;9.156;2023-06-14T05:57:11;8.53;;;7.63;;
8435;SDS011;4255;48.730;9.156;2023-06-14T05:59:37;9.93;;;7.00;;
8435;SDS011;4255;48.730;9.156;2023-06-14T06:02:02;9.23;;;7.17;;
8435;SDS011;4255;48.730;9.156;2023-06-14T06:04:28;8.90;;;6.70;;
8435;SDS011;4255;48.730;9.156;2023-06-14T06:06:54;7.73;;;7.00;;
8435;SDS011;4255;48.730;9.156;2023-06-14T06:09:19;11.93;;;7.20;;
8435;SDS011;4255;48.730;9.156;2023-06-14T06:11:45;8.13;;;7.17;;
8435;SDS011;4255;48.730;9.156;2023-06-14T06:14:10;8.67;;;6.70;;
8435;SDS011;4255;48.730;9.156;2023-06-14T06:16:36;8.47;;;6.93;;
8435;SDS011;4255;48.730;9.156;2023-06-14T06:19:01;7.90;;;7.10;;
8435;SDS011;4255;48.730;9.156;2023-06-14T06:21:27;7.60;;;6.83;;
8435;SDS011;4255;48.730;9.156;2023-06-14T06:23:52;9.40;;;7.00;;
8435;SDS011;4255;48.730;9.156;2023-06-14T06:26:19;9.83;;;7.57;;
8435;SDS011;4255;48.730;9.156;2023-06-14T06:28:46;7.30;;;6.60;;
8435;SDS011;4255;48.730;9.156;2023-06-14T06:31:12;7.20;;;6.50;;
8435;SDS011;4255;48.730;9.156;2023-06-14T06:33:38;9.63;;;6.60;;
8435;SDS011;4255;48.730;9.156;2023-06-14T06:36:04;9.53;;;6.53;;
8435;SDS011;4255;48.730;9.156;2023-06-14T06:38:30;9.40;;;7.07;;
8435;SDS011;4255;48.730;9.156;2023-06-14T06:40:56;9.80;;;6.37;;
8435;SDS011;4255;48.730;9.156;2023-06-14T06:43:22;11.63;;;6.10;;
8435;SDS011;4255;48.730;9.156;2023-06-14T06:45:47;13.33;;;7.20;;
8435;SDS011;4255;48.730;9.156;2023-06-14T06:48:13;7.23;;;6.23;;
8435;SDS011;4255;48.730;9.156;2023-06-14T06:50:40;7.00;;;6.30;;
8435;SDS011;4255;48.730;9.156;2023-06-14T06:53:06;9.50;;;7.00;;
8435;SDS011;4255;48.730;9.156;2023-06-14T06:55:32;8.07;;;7.17;;
8435;SDS011;4255;48.730;9.156;2023-06-14T06:57:57;7.13;;;6.43;;
8435;SDS011;4255;48.730;9.156;2023-06-14T07:00:24;9.27;;;6.20;;
8435;SDS011;4255;48.730;9.156;2023-06-14T07:02:50;9.70;;;6.80;;
8435;SDS011;4255;48.730;9.156;2023-06-14T07:05:16;8.00;;;7.27;;
8435;SDS011;4255;48.730;9.156;2023-06-14T07:07:41;8.63;;;6.60;;
8435;SDS011;4255;48.730;9.156;2023-06-14T07:10:07;9.50;;;6.87;;
8435;SDS011;4255;48.730;9.156;2023-06-14T07:12:33;10.10;;;7.60;;
8435;SDS011;4255;48.730;9.156;2023-06-14T07:15:01;10.33;;;6.67;;
8435;SDS011;4255;48.730;9.156;2023-06-14T07:17:26;9.87;;;6.53;;
8435;SDS011;4255;48.730;9.156;2023-06-14T07:19:52;7.57;;;6.70;;
8435;SDS011;4255;48.730;9.156;2023-06-14T07:22:18;15.70;;;8.43;;
8435;SDS011;4255;48.730;9.156;2023-06-14T07:24:44;10.63;;;6.90;;
8435;SDS011;4255;48.730;9.156;2023-06-14T07:27:10;10.60;;;7.10;;
8435;SDS011;4255;48.730;9.156;2023-06-14T07:29:38;8.83;;;7.17;;
8435;SDS011;4255;48.730;9.156;2023-06-14T07:32:03;7.57;;;6.87;;
8435;SDS011;4255;48.730;9.156;2023-06-14T07:34:29;7.50;;;5.83;;
8435;SDS011;4255;48.730;9.156;2023-06-14T07:36:55;7.33;;;6.43;;
8435;SDS011;4255;48.730;9.156;2023-06-14T07:39:21;7.77;;;6.53;;
8435;SDS011;4255;48.730;9.156;2023-06-14T07:41:46;10.90;;;6.67;;
8435;SDS011;4255;48.730;9.156;2023-06-14T07:44:12;9.57;;;7.37;;
8435;SDS011;4255;48.730;9.156;2023-06-14T07:46:38;7.23;;;6.63;;
8435;SDS011;4255;48.730;9.156;2023-06-14T07:49:04;8.13;;;6.57;;
8435;SDS011;4255;48.730;9.156;2023-06-14T07:51:30;8.63;;;6.23;;
8435;SDS011;4255;48.730;9.156;2023-06-14T07:53:55;6.40;;;5.90;;
8435;SDS011;4255;48.730;9.156;2023-06-14T07:56:21;7.27;;;6.53;;
8435;SDS011;4255;48.730;9.156;2023-06-14T07:58:48;7.10;;;6.40;;
8435;SDS011;4255;48.730;9.156;2023-06-14T08:01:13;7.43;;;6.80;;
8435;SDS011;4255;48.730;9.156;2023-06-14T08:03:40;8.90;;;7.00;;
8435;SDS011;4255;48.730;9.156;2023-06-14T08:06:06;9.67;;;6.60;;
8435;SDS011;4255;48.730;9.156;2023-06-14T08:08:32;10.87;;;7.03;;
8435;SDS011;4255;48.730;9.156;2023-06-14T08:10:58;6.70;;;6.10;;
8435;SDS011;4255;48.730;9.156;2023-06-14T08:13:24;8.30;;;6.90;;
8435;SDS011;4255;48.730;9.156;2023-06-14T08:15:49;6.90;;;6.20;;
8435;SDS011;4255;48.730;9.156;2023-06-14T08:18:16;8.10;;;6.47;;
8435;SDS011;4255;48.730;9.156;2023-06-14T08:20:41;7.30;;;6.60;;
8435;SDS011;4255;48.730;9.156;2023-06-14T08:23:07;7.93;;;6.80;;
8435;SDS011;4255;48.730;9.156;2023-06-14T08:25:34;12.27;;;6.60;;
8435;SDS011;4255;48.730;9.156;2023-06-14T08:27:59;17.23;;;7.40;;
8435;SDS011;4255;48.730;9.156;2023-06-14T08:30:25;7.87;;;7.10;;
8435;SDS011;4255;48.730;9.156;2023-06-14T08:32:51;8.20;;;7.40;;
8435;SDS011;4255;48.730;9.156;2023-06-14T08:35:17;16.13;;;7.20;;
8435;SDS011;4255;48.730;9.156;2023-06-14T08:37:43;7.57;;;6.37;;
8435;SDS011;4255;48.730;9.156;2023-06-14T08:40:13;13.73;;;7.50;;
8435;SDS011;4255;48.730;9.156;2023-06-14T08:42:55;15.43;;;7.77;;
8435;SDS011;4255;48.730;9.156;2023-06-14T08:45:21;9.37;;;6.77;;
8435;SDS011;4255;48.730;9.156;2023-06-14T08:47:48;9.00;;;7.47;;
8435;SDS011;4255;48.730;9.156;2023-06-14T08:50:21;10.23;;;7.17;;
8435;SDS011;4255;48.730;9.156;2023-06-14T08:53:06;12.67;;;7.10;;
8435;SDS011;4255;48.730;9.156;2023-06-14T08:55:35;7.70;;;6.10;;
8435;SDS011;4255;48.730;9.156;2023-06-14T08:58:04;11.13;;;6.97;;
8435;SDS011;4255;48.730;9.156;2023-06-14T09:00:30;7.30;;;6.00;;
8435;SDS011;4255;48.730;9.156;2023-06-14T09:02:57;14.13;;;7.17;;
8435;SDS011;4255;48.730;9.156;2023-06-14T09:05:24;8.40;;;7.30;;
8435;SDS011;4255;48.730;9.156;2023-06-14T09:07:50;9.50;;;6.93;;
8435;SDS011;4255;48.730;9.156;2023-06-14T09:10:16;8.30;;;6.30;;
8435;SDS011;4255;48.730;9.156;2023-06-14T09:12:42;7.70;;;6.47;;
8435;SDS011;4255;48.730;9.156;2023-06-14T09:15:08;8.37;;;6.50;;
8435;SDS011;4255;48.730;9.156;2023-06-14T09:17:34;6.90;;;6.20;;
8435;SDS011;4255;48.730;9.156;2023-06-14T09:20:03;9.00;;;6.80;;
8435;SDS011;4255;48.730;9.156;2023-06-14T09:22:31;6.33;;;5.70;;
8435;SDS011;4255;48.730;9.156;2023-06-14T09:24:57;7.17;;;6.53;;
8435;SDS011;4255;48.730;9.156;2023-06-14T09:27:23;6.53;;;5.93;;
8435;SDS011;4255;48.730;9.156;2023-06-14T09:29:51;6.80;;;6.10;;
8435;SDS011;4255;48.730;9.156;2023-06-14T09:32:17;7.57;;;6.60;;
8435;SDS011;4255;48.730;9.156;2023-06-14T09:34:43;8.00;;;7.20;;
8435;SDS011;4255;48.730;9.156;2023-06-14T09:37:09;6.83;;;6.00;;
8435;SDS011;4255;48.730;9.156;2023-06-14T09:39:35;11.83;;;6.50;;
8435;SDS011;4255;48.730;9.156;2023-06-14T09:42:00;10.03;;;6.23;;
8435;SDS011;4255;48.730;9.156;2023-06-14T09:44:26;9.57;;;6.73;;
8435;SDS011;4255;48.730;9.156;2023-06-14T09:46:53;8.67;;;6.23;;
8435;SDS011;4255;48.730;9.156;2023-06-14T09:49:21;14.30;;;6.33;;
8435;SDS011;4255;48.730;9.156;2023-06-14T09:51:47;6.17;;;5.67;;
8435;SDS011;4255;48.730;9.156;2023-06-14T09:54:16;10.20;;;6.17;;
8435;SDS011;4255;48.730;9.156;2023-06-14T09:56:47;7.57;;;5.63;;
8435;SDS011;4255;48.730;9.156;2023-06-14T09:59:19;7.20;;;5.10;;
8435;SDS011;4255;48.730;9.156;2023-06-14T10:01:46;8.40;;;5.63;;
8435;SDS011;4255;48.730;9.156;2023-06-14T10:04:13;7.03;;;6.33;;
8435;SDS011;4255;48.730;9.156;2023-06-14T10:06:41;5.93;;;5.40;;
8435;SDS011;4255;48.730;9.156;2023-06-14T10:09:10;5.50;;;5.00;;
8435;SDS011;4255;48.730;9.156;2023-06-14T10:11:37;5.93;;;5.37;;
8435;SDS011;4255;48.730;9.156;2023-06-14T10:14:08;6.90;;;6.23;;
8435;SDS011;4255;48.730;9.156;2023-06-14T10:16:49;5.77;;;5.30;;
8435;SDS011;4255;48.730;9.156;2023-06-14T10:19:50;5.47;;;4.97;;
8435;SDS011;4255;48.730;9.156;2023-06-14T10:22:40;11.70;;;6.50;;
8435;SDS011;4255;48.730;9.156;2023-06-14T10:25:13;6.40;;;5.80;;
8435;SDS011;4255;48.730;9.156;2023-06-14T10:27:52;9.63;;;6.40;;
8435;SDS011;4255;48.730;9.156;2023-06-14T10:30:18;7.13;;;5.40;;
8435;SDS011;4255;48.730;9.156;2023-06-14T10:33:03;6.73;;;6.13;;
8435;SDS011;4255;48.730;9.156;2023-06-14T10:35:32;7.60;;;5.90;;
8435;SDS011;4255;48.730;9.156;2023-06-14T10:38:11;6.40;;;5.90;;
8435;SDS011;4255;48.730;9.156;2023-06-14T10:40:38;7.90;;;6.47;;
8435;SDS011;4255;48.730;9.156;2023-06-14T10:43:20;6.40;;;5.90;;
8435;SDS011;4255;48.730;9.156;2023-06-14T10:48:40;11.00;;;6.00;;
8435;SDS011;4255;48.730;9.156;2023-06-14T10:51:13;8.73;;;6.50;;
8435;SDS011;4255;48.730;9.156;2023-06-14T10:53:45;7.20;;;6.23;;
8435;SDS011;4255;48.730;9.156;2023-06-14T10:58:54;8.00;;;6.37;;
8435;SDS011;4255;48.730;9.156;2023-06-14T11:01:23;7.87;;;6.33;;
8435;SDS011;4255;48.730;9.156;2023-06-14T11:04:06;7.67;;;6.17;;
8435;SDS011;4255;48.730;9.156;2023-06-14T11:11:59;8.57;;;6.23;;
8435;SDS011;4255;48.730;9.156;2023-06-14T11:14:29;8.60;;;6.03;;
8435;SDS011;4255;48.730;9.156;2023-06-14T11:16:56;7.13;;;6.43;;
8435;SDS011;4255;48.730;9.156;2023-06-14T11:19:21;6.83;;;5.90;;
8435;SDS011;4255;48.730;9.156;2023-06-14T11:21:50;6.73;;;5.97;;
8435;SDS011;4255;48.730;9.156;2023-06-14T11:24:16;7.53;;;6.43;;
8435;SDS011;4255;48.730;9.156;2023-06-14T11:26:42;5.60;;;5.10;;
8435;SDS011;4255;48.730;9.156;2023-06-14T11:29:07;5.63;;;5.23;;
8435;SDS011;4255;48.730;9.156;2023-06-14T11:31:33;6.43;;;5.93;;
8435;SDS011;4255;48.730;9.156;2023-06-14T11:33:59;6.70;;;5.63;;
8435;SDS011;4255;48.730;9.156;2023-06-14T11:36:29;5.97;;;5.47;;
8435;SDS011;4255;48.730;9.156;2023-06-14T11:38:59;5.30;;;4.80;;
8435;SDS011;4255;48.730;9.156;2023-06-14T11:41:31;8.67;;;6.17;;
8435;SDS011;4255;48.730;9.156;2023-06-14T11:44:05;7.47;;;5.77;;
8435;SDS011;4255;48.730;9.156;2023-06-14T11:46:31;6.23;;;5.37;;
8435;SDS011;4255;48.730;9.156;2023-06-14T11:48:56;5.87;;;5.33;;
8435;SDS011;4255;48.730;9.156;2023-06-14T11:51:23;5.33;;;4.83;;
8435;SDS011;4255;48.730;9.156;2023-06-14T11:53:48;7.70;;;5.40;;
8435;SDS011;4255;48.730;9.156;2023-06-14T11:56:14;7.77;;;5.40;;
8435;SDS011;4255;48.730;9.156;2023-06-14T11:58:42;9.57;;;5.50;;
8435;SDS011;4255;48.730;9.156;2023-06-14T12:01:08;9.30;;;5.60;;
8435;SDS011;4255;48.730;9.156;2023-06-14T12:03:34;5.67;;;5.03;;
8435;SDS011;4255;48.730;9.156;2023-06-14T12:06:07;11.10;;;5.23;;
8435;SDS011;4255;48.730;9.156;2023-06-14T12:08:36;9.67;;;5.00;;
8435;SDS011;4255;48.730;9.156;2023-06-14T12:11:05;7.00;;;5.30;;
8435;SDS011;4255;48.730;9.156;2023-06-14T12:13:33;8.03;;;5.53;;
8435;SDS011;4255;48.730;9.156;2023-06-14T12:16:00;6.33;;;5.70;;
8435;SDS011;4255;48.730;9.156;2023-06-14T12:18:36;6.80;;;5.90;;
8435;SDS011;4255;48.730;9.156;2023-06-14T12:21:07;8.83;;;6.10;;
8435;SDS011;4255;48.730;9.156;2023-06-14T12:26:13;7.00;;;5.10;;
8435;SDS011;4255;48.730;9.156;2023-06-14T12:28:44;9.80;;;5.27;;
8435;SDS011;4255;48.730;9.156;2023-06-14T12:31:12;5.80;;;5.20;;
8435;SDS011;4255;48.730;9.156;2023-06-14T12:33:40;5.73;;;4.67;;
8435;SDS011;4255;48.730;9.156;2023-06-14T12:36:06;10.80;;;5.70;;
8435;SDS011;4255;48.730;9.156;2023-06-14T12:38:33;7.93;;;5.47;;
8435;SDS011;4255;48.730;9.156;2023-06-14T12:40:59;8.83;;;5.57;;
8435;SDS011;4255;48.730;9.156;2023-06-14T12:43:25;5.87;;;5.37;;
8435;SDS011;4255;48.730;9.156;2023-06-14T12:45:51;5.97;;;5.37;;
8435;SDS011;4255;48.730;9.156;2023-06-14T12:48:17;6.40;;;5.80;;
8435;SDS011;4255;48.730;9.156;2023-06-14T12:50:42;7.00;;;5.60;;
8435;SDS011;4255;48.730;9.156;2023-06-14T12:53:08;7.00;;;6.30;;
8435;SDS011;4255;48.730;9.156;2023-06-14T12:55:34;5.27;;;4.87;;
8435;SDS011;4255;48.730;9.156;2023-06-14T12:57:59;5.87;;;5.37;;
8435;SDS011;4255;48.730;9.156;2023-06-14T13:00:25;5.37;;;4.97;;
8435;SDS011;4255;48.730;9.156;2023-06-14T13:02:51;8.80;;;5.60;;
8435;SDS011;4255;48.730;9.156;2023-06-14T13:05:17;4.77;;;4.33;;
8435;SDS011;4255;48.730;9.156;2023-06-14T13:07:43;11.43;;;5.90;;
8435;SDS011;4255;48.730;9.156;2023-06-14T13:10:09;6.70;;;5.33;;
8435;SDS011;4255;48.730;9.156;2023-06-14T13:12:35;6.70;;;5.77;;
8435;SDS011;4255;48.730;9.156;2023-06-14T13:15:01;6.80;;;5.23;;
8435;SDS011;4255;48.730;9.156;2023-06-14T13:17:27;5.40;;;4.90;;
8435;SDS011;4255;48.730;9.156;2023-06-14T13:19:52;6.90;;;5.70;;
8435;SDS011;4255;48.730;9.156;2023-06-14T13:22:18;7.57;;;5.77;;
8435;SDS011;4255;48.730;9.156;2023-06-14T13:24:44;7.70;;;5.00;;
8435;SDS011;4255;48.730;9.156;2023-06-14T13:27:10;6.10;;;5.60;;
8435;SDS011;4255;48.730;9.156;2023-06-14T13:29:35;6.13;;;5.63;;
8435;SDS011;4255;48.730;9.156;2023-06-14T13:32:02;6.10;;;5.50;;
8435;SDS011;4255;48.730;9.156;2023-06-14T13:34:28;6.43;;;5.40;;
8435;SDS011;4255;48.730;9.156;2023-06-14T13:36:53;10.80;;;5.67;;
8435;SDS011;4255;48.730;9.156;2023-06-14T13:39:19;5.83;;;4.90;;
8435;SDS011;4255;48.730;9.156;2023-06-14T13:41:44;5.80;;;4.97;;
8435;SDS011;4255;48.730;9.156;2023-06-14T13:44:10;5.70;;;5.20;;
8435;SDS011;4255;48.730;9.156;2023-06-14T13:46:41;6.90;;;5.10;;
8435;SDS011;4255;48.730;9.156;2023-06-14T13:49:07;6.87;;;5.77;;
8435;SDS011;4255;48.730;9.156;2023-06-14T13:51:33;6.17;;;5.57;;
8435;SDS011;4255;48.730;9.156;2023-06-14T13:54:00;5.80;;;5.10;;
8435;SDS011;4255;48.730;9.156;2023-06-14T13:56:26;6.60;;;5.80;;
8435;SDS011;4255;48.730;9.156;2023-06-14T13:58:52;6.03;;;5.43;;
8435;SDS011;4255;48.730;9.156;2023-06-14T14:01:17;8.37;;;5.17;;
8435;SDS011;4255;48.730;9.156;2023-06-14T14:03:45;5.40;;;5.00;;
8435;SDS011;4255;48.730;9.156;2023-06-14T14:06:11;5.77;;;5.17;;
8435;SDS011;4255;48.730;9.156;2023-06-14T14:08:38;6.03;;;5.43;;
8435;SDS011;4255;48.730;9.156;2023-06-14T14:11:04;6.10;;;5.33;;
8435;SDS011;4255;48.730;9.156;2023-06-14T14:13:31;5.90;;;5.40;;
8435;SDS011;4255;48.730;9.156;2023-06-14T14:15:56;5.80;;;5.30;;
8435;SDS011;4255;48.730;9.156;2023-06-14T14:18:22;11.20;;;5.23;;
8435;SDS011;4255;48.730;9.156;2023-06-14T14:20:48;6.50;;;5.13;;
8435;SDS011;4255;48.730;9.156;2023-06-14T14:23:13;10.23;;;5.53;;
8435;SDS011;4255;48.730;9.156;2023-06-14T14:25:39;7.97;;;5.00;;
8435;SDS011;4255;48.730;9.156;2023-06-14T14:28:05;6.00;;;5.40;;
8435;SDS011;4255;48.730;9.156;2023-06-14T14:30:31;5.83;;;5.23;;
8435;SDS011;4255;48.730;9.156;2023-06-14T14:32:57;6.83;;;6.00;;
8435;SDS011;4255;48.730;9.156;2023-06-14T14:35:23;5.43;;;5.03;;
8435;SDS011;4255;48.730;9.156;2023-06-14T14:37:51;5.50;;;5.00;;
8435;SDS011;4255;48.730;9.156;2023-06-14T14:40:17;10.27;;;5.80;;
8435;SDS011;4255;48.730;9.156;2023-06-14T14:42:42;5.97;;;5.33;;
8435;SDS011;4255;48.730;9.156;2023-06-14T14:45:08;6.07;;;5.50;;
8435;SDS011;4255;48.730;9.156;2023-06-14T14:47:34;5.10;;;4.70;;
8435;SDS011;4255;48.730;9.156;2023-06-14T14:49:59;5.73;;;5.23;;
8435;SDS011;4255;48.730;9.156;2023-06-14T14:52:25;6.50;;;6.00;;
8435;SDS011;4255;48.730;9.156;2023-06-14T14:54:51;5.67;;;5.10;;
8435;SDS011;4255;48.730;9.156;2023-06-14T14:57:18;6.23;;;5.73;;
8435;SDS011;4255;48.730;9.156;2023-06-14T14:59:43;5.90;;;5.30;;
8435;SDS011;4255;48.730;9.156;2023-06-14T15:02:09;6.00;;;5.50;;
8435;SDS011;4255;48.730;9.156;2023-06-14T15:04:35;5.20;;;4.70;;
8435;SDS011;4255;48.730;9.156;2023-06-14T15:07:01;11.20;;;5.30;;
8435;SDS011;4255;48.730;9.156;2023-06-14T15:09:26;5.70;;;5.10;;
8435;SDS011;4255;48.730;9.156;2023-06-14T15:11:52;7.70;;;6.47;;
8435;SDS011;4255;48.730;9.156;2023-06-14T15:14:17;5.80;;;5.20;;
8435;SDS011;4255;48.730;9.156;2023-06-14T15:16:43;5.60;;;5.10;;
8435;SDS011;4255;48.730;9.156;2023-06-14T15:19:09;8.27;;;5.67;;
8435;SDS011;4255;48.730;9.156;2023-06-14T15:21:35;5.23;;;4.73;;
8435;SDS011;4255;48.730;9.156;2023-06-14T15:24:01;4.90;;;4.47;;
8435;SDS011;4255;48.730;9.156;2023-06-14T15:26:26;7.87;;;5.00;;
8435;SDS011;4255;48.730;9.156;2023-06-14T15:28:53;5.53;;;5.03;;
8435;SDS011;4255;48.730;9.156;2023-06-14T15:31:19;7.83;;;5.30;;
8435;SDS011;4255;48.730;9.156;2023-06-14T15:33:45;5.90;;;5.40;;